Time;durP1;ratioP1;P1;durP2;ratioP2;P2;SDS_P1;SDS_P2;PMS_P1;PMS_P2;Temp;Humidity;BMP_temperature;BMP_pressure;BME280_temperature;BME280_humidity;BME280_pressure;Samples;Min_cycle;Max_cycle;Signal;HPM_P1;HPM_P2
2023/03/02 00:01:00;;;;;;;8.77;6.85;;;;;;;0.04;68.53;102376.94;5113363;28;20031;-55
2023/03/02 00:03:27;;;;;;;10.30;6.65;;;;;;;0.02;68.61;102376.09;5103974;28;20034;-55
2023/03/02 00:05:53;;;;;;;10.80;6.68;;;;;;;0.01;68.60;102378.72;5112520;27;20114;-57
2023/03/02 00:08:19;;;;;;;9.23;6.45;;;;;;;-0.04;68.86;102371.78;5113788;27;20039;-57
2023/03/02 00:10:44;;;;;;;8.73;6.28;;;;;;;-0.02;68.75;102377.00;5113783;27;20062;-56
2023/03/02 00:13:11;;;;;;;8.63;6.15;;;;;;;-0.05;69.48;102377.00;5113613;27;20063;-55
2023/03/02 00:15:36;;;;;;;11.50;6.50;;;;;;;-0.08;68.77;102377.06;5112988;27;20024;-54
2023/03/02 00:18:02;;;;;;;9.65;6.63;;;;;;;-0.09;68.94;102380.53;5113678;27;20034;-58
2023/03/02 00:20:27;;;;;;;9.25;6.10;;;;;;;-0.10;68.63;102378.78;5113763;27;20027;-58
2023/03/02 00:22:52;;;;;;;8.70;6.05;;;;;;;-0.12;68.94;102373.56;5112835;27;20023;-56
2023/03/02 00:25:18;;;;;;;12.40;6.43;;;;;;;-0.13;68.36;102373.59;5108976;27;20035;-53
2023/03/02 00:27:43;;;;;;;8.68;6.20;;;;;;;-0.16;68.65;102382.31;5112778;28;20028;-57
2023/03/02 00:30:11;;;;;;;10.30;6.53;;;;;;;-0.17;68.82;102377.09;5112313;28;20023;-56
2023/03/02 00:32:36;;;;;;;12.60;6.40;;;;;;;-0.19;68.63;102382.34;5112143;28;20050;-54
2023/03/02 00:35:02;;;;;;;7.90;5.93;;;;;;;-0.22;68.50;102384.97;5107447;27;20359;-56
2023/03/02 00:37:27;;;;;;;9.60;6.32;;;;;;;-0.21;68.46;102389.31;5113267;28;20371;-56
2023/03/02 00:39:53;;;;;;;9.52;6.28;;;;;;;-0.23;69.14;102396.31;5112664;28;20027;-53
2023/03/02 00:42:19;;;;;;;8.50;6.07;;;;;;;-0.24;69.14;102386.72;5109457;27;20482;-58
2023/03/02 00:44:44;;;;;;;11.60;7.05;;;;;;;-0.26;69.40;102386.75;5105972;27;20114;-57
2023/03/02 00:47:10;;;;;;;7.10;5.82;;;;;;;-0.27;69.29;102385.00;5112067;28;20106;-56
2023/03/02 00:49:35;;;;;;;10.10;6.75;;;;;;;-0.28;69.34;102380.66;5102116;28;20042;-56
2023/03/02 00:52:02;;;;;;;9.60;6.97;;;;;;;-0.31;69.75;102382.44;5113128;27;20358;-54
2023/03/02 00:54:27;;;;;;;8.57;6.03;;;;;;;-0.33;69.53;102377.22;5112583;28;20024;-55
2023/03/02 00:56:52;;;;;;;9.20;6.45;;;;;;;-0.33;69.39;102378.94;5111449;28;20028;-55
2023/03/02 00:59:27;;;;;;;10.70;7.30;;;;;;;-0.33;69.69;102376.34;5112715;28;20442;-56
2023/03/02 01:01:56;;;;;;;10.20;7.18;;;;;;;-0.34;69.52;102388.53;5110870;28;20031;-57
2023/03/02 01:04:23;;;;;;;10.40;7.10;;;;;;;-0.34;69.80;102377.22;5112852;27;20055;-54
2023/03/02 01:06:48;;;;;;;9.70;6.60;;;;;;;-0.33;69.96;102378.94;5097554;28;20031;-54
2023/03/02 01:09:13;;;;;;;8.70;6.25;;;;;;;-0.34;69.83;102372.88;5112647;27;20474;-57
2023/03/02 01:11:39;;;;;;;10.20;6.22;;;;;;;-0.34;69.73;102370.25;5107816;28;20030;-56
2023/03/02 01:14:04;;;;;;;8.90;6.60;;;;;;;-0.34;70.28;102367.66;5109041;28;20466;-56
2023/03/02 01:16:32;;;;;;;9.77;6.47;;;;;;;-0.36;70.45;102360.72;5111958;28;20027;-54
2023/03/02 01:18:57;;;;;;;10.48;6.55;;;;;;;-0.37;70.44;102362.44;5108805;28;20055;-53
2023/03/02 01:21:22;;;;;;;12.73;6.82;;;;;;;-0.38;70.47;102363.34;5112288;28;20469;-54
2023/03/02 01:23:48;;;;;;;11.77;6.95;;;;;;;-0.42;70.67;102361.59;5096295;28;20024;-55
2023/03/02 01:26:13;;;;;;;10.25;7.00;;;;;;;-0.44;70.56;102358.16;5108377;28;20405;-56
2023/03/02 01:28:38;;;;;;;11.68;6.50;;;;;;;-0.45;70.89;102353.78;5113316;28;20027;-57
2023/03/02 01:31:04;;;;;;;8.85;6.30;;;;;;;-0.48;70.92;102354.69;5112780;28;20024;-56
2023/03/02 01:33:30;;;;;;;11.77;6.72;;;;;;;-0.49;71.07;102359.91;5113459;28;20066;-57
2023/03/02 01:35:55;;;;;;;11.52;6.07;;;;;;;-0.51;71.24;102353.84;5113456;28;20023;-57
2023/03/02 01:38:21;;;;;;;9.40;6.70;;;;;;;-0.51;71.27;102351.25;5111931;28;20035;-58
2023/03/02 01:40:46;;;;;;;9.85;6.82;;;;;;;-0.53;71.28;102343.41;5109513;28;20402;-56
2023/03/02 01:43:16;;;;;;;9.00;6.72;;;;;;;-0.53;71.52;102342.53;5111415;28;20099;-56
2023/03/02 01:45:47;;;;;;;10.07;6.70;;;;;;;-0.54;71.31;102343.41;5109846;28;20035;-55
2023/03/02 01:48:15;;;;;;;9.40;7.22;;;;;;;-0.56;71.60;102339.06;5116113;27;20431;-54
2023/03/02 01:50:40;;;;;;;10.30;6.38;;;;;;;-0.55;71.58;102337.31;5097589;28;20080;-54
2023/03/02 01:53:07;;;;;;;9.73;6.57;;;;;;;-0.56;71.54;102341.69;5117463;27;20417;-54
2023/03/02 01:55:35;;;;;;;9.27;6.55;;;;;;;-0.57;71.71;102336.47;5115611;28;20489;-54
2023/03/02 01:58:03;;;;;;;10.48;7.00;;;;;;;-0.57;71.86;102344.28;5101299;28;20118;-57
2023/03/02 02:00:34;;;;;;;9.40;6.43;;;;;;;-0.57;72.08;102336.47;5113140;27;20119;-56
2023/03/02 02:03:07;;;;;;;11.57;6.70;;;;;;;-0.59;71.91;102341.69;5115172;28;20024;-57
2023/03/02 02:05:36;;;;;;;10.82;7.40;;;;;;;-0.60;71.81;102339.09;5112126;28;20019;-56
2023/03/02 02:08:02;;;;;;;9.82;7.15;;;;;;;-0.61;71.93;102333.00;5118474;27;20036;-57
2023/03/02 02:10:29;;;;;;;10.63;7.15;;;;;;;-0.63;72.35;102334.78;5097910;28;20027;-56
2023/03/02 02:12:55;;;;;;;10.68;6.82;;;;;;;-0.63;72.29;102331.31;5114455;28;20497;-57
2023/03/02 02:15:20;;;;;;;13.13;7.97;;;;;;;-0.66;72.35;102328.72;5115533;28;20035;-57
2023/03/02 02:17:46;;;;;;;10.05;6.88;;;;;;;-0.65;72.56;102333.03;5114641;27;20019;-57
2023/03/02 02:20:20;;;;;;;11.60;7.20;;;;;;;-0.66;72.49;102329.56;5115832;28;20382;-53
2023/03/02 02:22:52;;;;;;;9.80;7.35;;;;;;;-0.70;72.74;102324.38;5112929;27;20024;-56
2023/03/02 02:25:27;;;;;;;12.60;7.05;;;;;;;-0.72;72.74;102326.97;5113502;28;20036;-55
2023/03/02 02:27:53;;;;;;;10.35;6.70;;;;;;;-0.74;72.79;102328.75;5099840;28;20032;-57
2023/03/02 02:30:20;;;;;;;12.15;7.47;;;;;;;-0.79;73.07;102322.69;5114270;28;20031;-54
2023/03/02 02:32:47;;;;;;;11.63;7.25;;;;;;;-0.80;73.35;102323.53;5106255;28;20030;-54
2023/03/02 02:35:21;;;;;;;11.48;7.78;;;;;;;-0.85;73.59;102321.00;5115803;27;20073;-58
2023/03/02 02:37:50;;;;;;;12.32;7.90;;;;;;;-0.89;73.96;102324.47;5116296;27;20023;-54
2023/03/02 02:40:21;;;;;;;11.88;7.75;;;;;;;-0.91;74.63;102309.72;5113651;28;20051;-57
2023/03/02 02:42:50;;;;;;;11.75;7.95;;;;;;;-0.95;74.80;102312.34;5115067;27;20035;-56
2023/03/02 02:45:25;;;;;;;12.32;8.00;;;;;;;-0.96;75.23;102313.19;5113652;28;20078;-58
2023/03/02 02:47:51;;;;;;;10.95;8.55;;;;;;;-1.00;75.42;102303.66;5097130;28;20037;-54
2023/03/02 02:50:24;;;;;;;11.98;8.38;;;;;;;-1.04;75.92;102299.34;5114201;27;20532;-54
2023/03/02 02:53:00;;;;;;;12.90;8.35;;;;;;;-1.04;76.01;102304.53;5096858;28;20051;-56
2023/03/02 02:55:25;;;;;;;14.20;8.60;;;;;;;-1.08;76.03;102305.44;5113753;28;20482;-56
2023/03/02 02:57:55;;;;;;;14.88;10.38;;;;;;;-1.09;76.97;102297.63;5104684;27;20356;-54
2023/03/02 03:00:22;;;;;;;15.80;9.80;;;;;;;-1.10;77.54;102306.31;5113878;27;20020;-58
2023/03/02 03:02:56;;;;;;;15.07;9.93;;;;;;;-1.10;77.81;102314.13;5114789;27;20572;-58
2023/03/02 03:05:21;;;;;;;19.50;10.48;;;;;;;-1.14;78.75;102303.72;5114709;27;20102;-56
2023/03/02 03:07:46;;;;;;;18.20;11.00;;;;;;;-1.15;78.32;102314.16;5114894;27;20115;-56
2023/03/02 03:10:25;;;;;;;18.58;11.40;;;;;;;-1.15;79.08;102312.44;5114769;27;20032;-54
2023/03/02 03:12:51;;;;;;;19.75;11.50;;;;;;;-1.17;79.90;102313.28;5115668;27;20114;-58
2023/03/02 03:15:16;;;;;;;19.02;12.15;;;;;;;-1.19;80.23;102309.84;5115531;27;20439;-58
2023/03/02 03:17:56;;;;;;;18.70;12.77;;;;;;;-1.20;80.96;102303.75;5113043;27;20182;-58
2023/03/02 03:20:22;;;;;;;;;;;;;;;-1.17;78.08;102303.72;5115625;27;20099;-57
2023/03/02 03:22:47;;;;;;;21.08;13.68;;;;;;;-1.23;81.32;102301.16;5114260;27;20014;-55
2023/03/02 03:25:14;;;;;;;20.23;13.70;;;;;;;-1.24;82.11;102301.16;5113694;28;20077;-57
2023/03/02 03:27:41;;;;;;;22.92;14.32;;;;;;;-1.26;82.05;102301.16;5115047;27;20019;-56
2023/03/02 03:30:08;;;;;;;21.92;14.07;;;;;;;-1.27;82.66;102298.56;5115686;27;20051;-57
2023/03/02 03:32:34;;;;;;;28.90;16.77;;;;;;;-1.28;83.62;102297.72;5114103;27;20036;-57
2023/03/02 03:34:59;;;;;;;25.42;16.73;;;;;;;-1.30;84.27;102294.22;5116010;27;20097;-54
2023/03/02 03:37:24;;;;;;;23.58;15.80;;;;;;;-1.31;85.02;102295.13;5113621;27;20055;-57
2023/03/02 03:39:50;;;;;;;26.60;17.33;;;;;;;-1.32;85.16;102296.88;5114145;28;20032;-58
2023/03/02 03:42:15;;;;;;;29.08;18.85;;;;;;;-1.33;85.65;102295.13;5112858;28;20036;-55
2023/03/02 03:44:41;;;;;;;28.77;18.38;;;;;;;-1.34;85.70;102293.38;5109595;28;20028;-54
2023/03/02 03:47:06;;;;;;;25.75;16.65;;;;;;;-1.34;85.83;102303.78;5108344;28;20024;-56
2023/03/02 03:49:31;;;;;;;28.65;18.83;;;;;;;-1.34;86.62;102302.94;5108503;27;20036;-55
2023/03/02 03:51:56;;;;;;;30.58;19.20;;;;;;;-1.34;86.90;102305.53;5113525;28;20460;-56
2023/03/02 03:54:22;;;;;;;30.02;19.90;;;;;;;-1.34;87.52;102302.94;5113189;28;20505;-55
2023/03/02 03:56:49;;;;;;;32.30;20.50;;;;;;;-1.34;87.27;102305.53;5113259;28;20027;-56
2023/03/02 03:59:18;;;;;;;32.38;21.00;;;;;;;-1.34;88.11;102309.00;5112432;27;20035;-54
2023/03/02 04:01:46;;;;;;;34.88;20.95;;;;;;;-1.33;87.81;102312.50;5111766;28;20066;-56
2023/03/02 04:04:23;;;;;;;31.08;20.95;;;;;;;-1.35;88.04;102316.84;5096193;28;20391;-56
2023/03/02 04:06:49;;;;;;;33.38;21.33;;;;;;;-1.34;88.36;102306.41;5111880;28;20028;-58
2023/03/02 04:09:18;;;;;;;34.67;22.48;;;;;;;-1.35;88.76;102315.13;5112944;28;20055;-56
2023/03/02 04:11:45;;;;;;;32.93;21.80;;;;;;;-1.34;89.31;102310.75;5113664;27;20047;-54
2023/03/02 04:14:11;;;;;;;36.95;22.90;;;;;;;-1.34;89.50;102309.00;5113176;28;20282;-54
2023/03/02 04:16:38;;;;;;;40.58;24.02;;;;;;;-1.34;89.91;102306.41;5112630;28;20110;-56
2023/03/02 04:19:08;;;;;;;37.50;23.05;;;;;;;-1.34;89.93;102310.75;5112523;28;20028;-57
2023/03/02 04:21:37;;;;;;;38.65;23.92;;;;;;;-1.36;90.28;102295.13;5113277;28;20020;-55
2023/03/02 04:24:03;;;;;;;35.05;22.80;;;;;;;-1.36;90.56;102302.09;5112929;28;20039;-57
2023/03/02 04:26:28;;;;;;;36.70;24.20;;;;;;;-1.36;90.52;102300.34;5112420;28;20362;-55
2023/03/02 04:28:53;;;;;;;37.90;23.58;;;;;;;-1.35;90.85;102301.19;5112478;28;20038;-56
2023/03/02 04:31:18;;;;;;;39.97;25.55;;;;;;;-1.35;90.94;102299.47;5113074;27;20065;-54
2023/03/02 04:33:44;;;;;;;37.53;23.00;;;;;;;-1.37;90.90;102303.81;5112978;28;20122;-56
2023/03/02 04:36:09;;;;;;;34.75;23.38;;;;;;;-1.36;90.94;102302.09;5112747;28;20032;-58
2023/03/02 04:38:35;;;;;;;39.15;23.75;;;;;;;-1.36;91.54;102305.53;5110115;28;20023;-57
2023/03/02 04:41:01;;;;;;;36.25;23.02;;;;;;;-1.36;91.16;102305.53;5113344;27;20051;-58
2023/03/02 04:43:26;;;;;;;35.95;22.77;;;;;;;-1.37;90.85;102298.59;5110919;28;20114;-58
2023/03/02 04:45:52;;;;;;;38.13;23.58;;;;;;;-1.36;90.92;102305.53;5113991;27;20111;-57
2023/03/02 04:48:18;;;;;;;35.75;21.90;;;;;;;-1.37;91.18;102298.59;5112440;28;20508;-55
2023/03/02 04:50:43;;;;;;;36.13;22.40;;;;;;;-1.37;90.76;102300.34;5106270;27;20027;-56
2023/03/02 04:53:10;;;;;;;36.03;22.75;;;;;;;-1.36;91.11;102300.34;5111128;27;20118;-56
2023/03/02 04:55:36;;;;;;;36.75;23.02;;;;;;;-1.37;90.94;102306.41;5112221;27;20019;-58
2023/03/02 04:58:02;;;;;;;36.05;21.30;;;;;;;-1.35;90.67;102306.41;5113257;27;20488;-58
2023/03/02 05:00:27;;;;;;;36.15;22.35;;;;;;;-1.37;90.85;102295.97;5112397;28;20031;-55
2023/03/02 05:02:53;;;;;;;34.53;21.95;;;;;;;-1.37;90.41;102297.72;5111933;28;20038;-57
2023/03/02 05:05:22;;;;;;;36.67;22.00;;;;;;;-1.39;90.55;102302.09;5112294;28;20044;-58
2023/03/02 05:07:47;;;;;;;34.28;21.70;;;;;;;-1.39;89.94;102305.56;5112557;28;20031;-59
2023/03/02 05:10:14;;;;;;;38.78;22.58;;;;;;;-1.41;89.76;102309.91;5111717;28;20035;-58
2023/03/02 05:13:01;;;;;;;34.40;22.48;;;;;;;-1.44;89.85;102312.53;5107782;28;20111;-57
2023/03/02 05:15:38;;;;;;;36.47;21.50;;;;;;;-1.46;89.49;102310.81;5111368;28;20143;-58
2023/03/02 05:18:05;;;;;;;36.25;21.92;;;;;;;-1.49;90.24;102307.31;5113631;28;20032;-54
2023/03/02 05:20:31;;;;;;;38.33;23.33;;;;;;;-1.51;90.47;102318.63;5113940;27;20496;-56
2023/03/02 05:22:59;;;;;;;36.90;23.27;;;;;;;-1.55;90.55;102309.06;5116719;27;20023;-58
2023/03/02 05:25:25;;;;;;;38.40;23.85;;;;;;;-1.56;90.45;102316.03;5117118;27;20032;-57
2023/03/02 05:27:51;;;;;;;35.70;23.92;;;;;;;-1.59;91.00;102308.22;5116821;27;20032;-57
2023/03/02 05:30:18;;;;;;;40.60;25.15;;;;;;;-1.61;91.23;102307.34;5114319;27;20019;-56
2023/03/02 05:32:43;;;;;;;43.75;26.05;;;;;;;-1.61;92.05;102306.50;5116968;27;20046;-55
2023/03/02 05:35:09;;;;;;;42.53;25.45;;;;;;;-1.65;91.95;102305.63;5117632;27;20485;-58
2023/03/02 05:37:34;;;;;;;42.30;25.63;;;;;;;-1.65;92.45;102297.81;5115524;28;20031;-58
2023/03/02 05:39:59;;;;;;;45.03;26.50;;;;;;;-1.64;93.81;102306.50;5117767;27;20407;-57
2023/03/02 05:42:25;;;;;;;45.63;26.63;;;;;;;-1.66;93.37;102303.03;5112205;28;20062;-56
2023/03/02 05:44:50;;;;;;;47.47;26.15;;;;;;;-1.66;93.54;102305.66;5115280;27;20051;-55
2023/03/02 05:47:15;;;;;;;42.28;25.10;;;;;;;-1.68;93.21;102303.91;5100427;28;20085;-57
2023/03/02 05:49:41;;;;;;;43.92;26.83;;;;;;;-1.68;93.57;102306.50;5117002;27;20076;-57
2023/03/02 05:52:06;;;;;;;42.63;25.92;;;;;;;-1.70;93.48;102303.03;5115554;28;20073;-54
2023/03/02 05:54:31;;;;;;;44.15;27.05;;;;;;;-1.71;93.71;102306.50;5116291;27;20470;-56
2023/03/02 05:56:57;;;;;;;45.70;26.17;;;;;;;-1.70;94.00;102304.75;5110105;27;20048;-57
2023/03/02 05:59:22;;;;;;;42.83;25.90;;;;;;;-1.72;94.01;102304.75;5117142;27;20022;-58
2023/03/02 06:01:48;;;;;;;43.10;26.23;;;;;;;-1.73;93.42;102305.66;5115688;28;20399;-58
2023/03/02 06:04:14;;;;;;;47.60;26.83;;;;;;;-1.75;94.06;102299.59;5115652;28;20019;-58
2023/03/02 06:06:39;;;;;;;45.10;26.13;;;;;;;-1.76;93.81;102300.44;5115568;28;20493;-58
2023/03/02 06:09:04;;;;;;;46.85;26.38;;;;;;;-1.77;93.73;102303.03;5116374;27;20384;-59
2023/03/02 06:11:29;;;;;;;45.03;26.00;;;;;;;-1.77;93.83;102300.44;5114486;28;20593;-57
2023/03/02 06:13:55;;;;;;;51.38;26.83;;;;;;;-1.79;94.31;102300.44;5115737;27;20039;-55
2023/03/02 06:16:20;;;;;;;46.13;26.45;;;;;;;-1.80;94.11;102300.44;5115515;27;20023;-56
2023/03/02 06:18:45;;;;;;;45.97;25.10;;;;;;;-1.82;94.22;102297.84;5114825;27;20015;-58
2023/03/02 06:21:11;;;;;;;52.00;27.40;;;;;;;-1.84;94.11;102304.78;5115226;28;20034;-56
2023/03/02 06:23:36;;;;;;;46.25;26.67;;;;;;;-1.85;94.22;102310.84;5114857;27;20024;-57
2023/03/02 06:26:07;;;;;;;46.50;26.33;;;;;;;-1.86;94.90;102314.34;5115647;27;20023;-56
2023/03/02 06:28:33;;;;;;;51.40;28.42;;;;;;;-1.86;95.08;102306.53;5114151;28;20023;-56
2023/03/02 06:30:59;;;;;;;46.33;26.70;;;;;;;-1.87;94.64;102312.59;5114970;28;20038;-56
2023/03/02 06:33:24;;;;;;;49.38;27.83;;;;;;;-1.87;94.63;102315.22;5114823;28;20042;-58
2023/03/02 06:35:49;;;;;;;54.78;28.13;;;;;;;-1.89;95.37;102319.56;5107033;28;20028;-58
2023/03/02 06:38:15;;;;;;;51.13;27.65;;;;;;;-1.88;96.21;102318.72;5104555;28;20023;-56
2023/03/02 06:40:40;;;;;;;52.80;28.58;;;;;;;-1.88;95.80;102318.72;5114452;28;20054;-57
2023/03/02 06:43:05;;;;;;;46.17;27.13;;;;;;;-1.87;96.38;102323.03;5119186;27;20016;-56
2023/03/02 06:45:32;;;;;;;48.00;28.80;;;;;;;-1.86;96.23;102328.22;5116922;27;20028;-56
2023/03/02 06:47:58;;;;;;;51.33;28.92;;;;;;;-1.87;96.43;102321.28;5116961;27;20463;-57
2023/03/02 06:50:24;;;;;;;52.88;28.83;;;;;;;-1.85;96.89;102331.69;5113745;28;20027;-55
2023/03/02 06:52:49;;;;;;;58.38;27.77;;;;;;;-1.82;97.06;102331.69;5111434;28;20554;-55
2023/03/02 06:55:14;;;;;;;47.65;27.52;;;;;;;-1.81;97.01;102328.22;5116610;27;20032;-57
2023/03/02 06:57:39;;;;;;;51.67;27.98;;;;;;;-1.80;97.24;102327.34;5113732;28;20015;-57
2023/03/02 07:00:14;;;;;;;49.58;28.42;;;;;;;-1.78;97.21;102324.75;5114691;28;20039;-58
2023/03/02 07:02:39;;;;;;;50.33;26.83;;;;;;;-1.77;97.24;102332.56;5114298;28;20142;-56
2023/03/02 07:05:05;;;;;;;51.22;27.90;;;;;;;-1.75;97.40;102337.75;5111767;28;20162;-57
2023/03/02 07:07:31;;;;;;;53.28;28.00;;;;;;;-1.74;98.02;102332.56;5109148;28;20485;-57
2023/03/02 07:09:56;;;;;;;50.60;28.67;;;;;;;-1.71;97.61;102329.94;5109287;28;20050;-56
2023/03/02 07:12:21;;;;;;;48.22;28.30;;;;;;;-1.68;97.57;102336.91;5109882;28;20020;-58
2023/03/02 07:14:47;;;;;;;52.65;28.40;;;;;;;-1.67;97.49;102341.22;5112313;28;20020;-58
2023/03/02 07:17:12;;;;;;;53.25;28.50;;;;;;;-1.65;97.67;102339.47;5114112;27;20055;-57
2023/03/02 07:19:37;;;;;;;53.28;27.90;;;;;;;-1.62;97.39;102344.69;5113180;27;20023;-58
2023/03/02 07:22:04;;;;;;;45.92;26.17;;;;;;;-1.59;97.68;102336.00;5110523;27;20366;-57
2023/03/02 07:24:29;;;;;;;50.78;26.25;;;;;;;-1.57;97.35;102342.09;5113877;27;20795;-56
2023/03/02 07:26:55;;;;;;;50.53;28.52;;;;;;;-1.55;97.38;102343.84;5117947;27;20399;-57
2023/03/02 07:29:20;;;;;;;52.90;28.63;;;;;;;-1.52;97.21;102338.59;5111836;28;20023;-54
2023/03/02 07:31:45;;;;;;;47.67;27.52;;;;;;;-1.48;97.32;102342.09;5112432;27;20419;-55
2023/03/02 07:34:11;;;;;;;49.70;27.70;;;;;;;-1.45;97.52;102341.19;5109992;27;20019;-58
2023/03/02 07:36:36;;;;;;;51.95;27.52;;;;;;;-1.42;97.39;102351.59;5111391;27;20050;-57
2023/03/02 07:39:02;;;;;;;49.22;27.42;;;;;;;-1.39;97.00;102346.41;5113218;27;20023;-58
2023/03/02 07:41:27;;;;;;;49.40;27.35;;;;;;;-1.35;97.15;102341.19;5111605;27;20040;-56
2023/03/02 07:43:54;;;;;;;50.72;27.30;;;;;;;-1.31;97.00;102342.88;5111104;28;20020;-58
2023/03/02 07:46:19;;;;;;;54.55;29.80;;;;;;;-1.28;97.41;102343.75;5110971;28;20035;-58
2023/03/02 07:48:44;;;;;;;50.92;27.88;;;;;;;-1.25;96.92;102342.03;5109621;28;20027;-58
2023/03/02 07:51:10;;;;;;;53.17;28.50;;;;;;;-1.21;96.96;102337.66;5111509;28;20423;-58
2023/03/02 07:53:35;;;;;;;50.78;27.27;;;;;;;-1.17;97.04;102344.56;5111975;28;20058;-57
2023/03/02 07:56:08;;;;;;;49.42;26.95;;;;;;;-1.14;97.12;102339.34;5108566;28;20110;-57
2023/03/02 07:58:34;;;;;;;52.22;28.08;;;;;;;-1.08;97.09;102344.56;5106400;28;20031;-58
2023/03/02 08:00:59;;;;;;;50.03;27.80;;;;;;;-1.04;96.65;102346.28;5077695;27;20035;-57
2023/03/02 08:03:25;;;;;;;52.38;27.42;;;;;;;-0.99;96.51;102341.03;5111954;27;20059;-58
2023/03/02 08:05:50;;;;;;;48.47;26.75;;;;;;;-0.94;95.72;102337.53;5109526;28;20530;-59
2023/03/02 08:08:15;;;;;;;54.08;27.30;;;;;;;-0.86;95.24;102336.66;5112542;27;20587;-58
2023/03/02 08:10:41;;;;;;;49.17;26.10;;;;;;;-0.78;94.86;102337.47;5114327;27;20462;-56
2023/03/02 08:13:06;;;;;;;46.50;25.65;;;;;;;-0.67;94.63;102343.47;5107576;28;20088;-58
2023/03/02 08:15:31;;;;;;;47.58;25.35;;;;;;;-0.58;93.91;102338.22;5112065;28;20552;-56
2023/03/02 08:17:56;;;;;;;42.72;24.25;;;;;;;-0.45;93.25;102351.19;5115176;27;20042;-57
2023/03/02 08:20:22;;;;;;;43.50;24.67;;;;;;;-0.32;92.81;102338.91;5110042;28;20060;-59
2023/03/02 08:22:47;;;;;;;43.47;23.50;;;;;;;-0.15;92.82;102336.19;5105226;28;20055;-58
2023/03/02 08:25:12;;;;;;;44.67;24.27;;;;;;;0.05;92.50;102349.06;5108683;28;20057;-56
2023/03/02 08:27:39;;;;;;;46.05;25.20;;;;;;;0.23;91.11;102332.38;5090781;28;20022;-58
2023/03/02 08:30:06;;;;;;;40.33;24.33;;;;;;;0.42;89.48;102339.16;5109160;27;20024;-55
2023/03/02 08:32:32;;;;;;;41.10;24.13;;;;;;;0.58;88.23;102334.63;5106503;27;20027;-57
2023/03/02 08:34:58;;;;;;;41.97;23.75;;;;;;;0.76;88.03;102344.00;5104552;28;20083;-57
2023/03/02 08:37:23;;;;;;;40.08;22.95;;;;;;;0.90;86.68;102333.41;5111624;28;20055;-57
2023/03/02 08:39:49;;;;;;;44.05;24.15;;;;;;;1.08;86.55;102340.13;5111121;28;20031;-55
2023/03/02 08:42:15;;;;;;;42.33;23.95;;;;;;;1.27;84.65;102338.16;5110702;28;20043;-55
2023/03/02 08:44:40;;;;;;;40.72;23.05;;;;;;;1.46;84.83;102341.38;5117472;27;20030;-58
2023/03/02 08:47:05;;;;;;;39.92;21.58;;;;;;;1.60;82.20;102335.91;5110952;28;20028;-59
2023/03/02 08:49:31;;;;;;;37.90;21.73;;;;;;;1.74;81.43;102333.09;5111528;28;20081;-59
2023/03/02 08:51:57;;;;;;;40.83;22.25;;;;;;;1.89;80.83;102338.09;5111414;28;20084;-58
2023/03/02 08:54:23;;;;;;;37.28;21.38;;;;;;;2.06;79.89;102335.19;5114648;27;20019;-56
2023/03/02 08:56:49;;;;;;;39.17;21.15;;;;;;;2.26;79.28;102331.34;5110461;28;20080;-58
2023/03/02 08:59:16;;;;;;;34.40;20.15;;;;;;;2.46;78.16;102336.25;5112467;28;20374;-58
2023/03/02 09:01:42;;;;;;;33.60;20.92;;;;;;;2.64;77.59;102329.78;5111849;28;20107;-59
2023/03/02 09:04:09;;;;;;;33.63;20.80;;;;;;;2.87;77.12;102331.94;5108772;28;20128;-57
2023/03/02 09:06:37;;;;;;;32.33;19.52;;;;;;;3.05;74.67;102325.44;5112617;28;20026;-59
2023/03/02 09:09:03;;;;;;;33.72;19.70;;;;;;;3.20;73.15;102316.38;5115700;27;20031;-57
2023/03/02 09:11:29;;;;;;;31.10;18.55;;;;;;;3.37;72.73;102319.50;5105756;28;20036;-59
2023/03/02 09:13:55;;;;;;;32.95;20.02;;;;;;;3.52;71.55;102315.66;5107057;28;20061;-58
2023/03/02 09:16:22;;;;;;;31.23;18.90;;;;;;;3.68;71.00;102311.75;5092562;28;20028;-55
2023/03/02 09:18:48;;;;;;;29.52;18.00;;;;;;;3.76;69.11;102316.81;5111471;28;20038;-59
2023/03/02 09:21:13;;;;;;;31.67;19.42;;;;;;;3.82;69.64;102314.03;5111940;28;20385;-57
2023/03/02 09:23:39;;;;;;;27.52;17.10;;;;;;;3.94;67.78;102310.25;5104563;28;20016;-58
2023/03/02 09:26:04;;;;;;;30.98;18.70;;;;;;;4.01;67.72;102316.22;5111615;28;20073;-58
2023/03/02 09:28:30;;;;;;;31.67;19.42;;;;;;;4.11;67.24;102315.06;5111654;28;20041;-58
2023/03/02 09:30:58;;;;;;;27.80;16.90;;;;;;;4.20;66.70;102306.09;5116026;28;20031;-59
2023/03/02 09:33:24;;;;;;;27.75;17.88;;;;;;;4.32;65.99;102310.16;5116515;28;20466;-58
2023/03/02 09:35:49;;;;;;;26.95;18.45;;;;;;;4.40;65.18;102311.69;5116856;28;20019;-58
2023/03/02 09:38:17;;;;;;;29.73;17.38;;;;;;;4.53;64.12;102314.84;5112085;28;20512;-56
2023/03/02 09:40:48;;;;;;;30.50;17.90;;;;;;;4.63;64.23;102311.03;5111915;28;20497;-59
2023/03/02 09:43:30;;;;;;;26.73;16.83;;;;;;;4.76;63.98;102308.94;5111693;28;20117;-56
2023/03/02 09:46:13;;;;;;;25.20;16.70;;;;;;;4.88;64.03;102307.72;5104233;28;20079;-57
2023/03/02 09:48:38;;;;;;;25.30;16.10;;;;;;;4.96;61.48;102305.72;5099794;28;20031;-55
2023/03/02 09:51:34;;;;;;;27.73;16.70;;;;;;;5.09;63.40;102302.72;5109473;28;20024;-55
2023/03/02 09:54:15;;;;;;;26.73;16.48;;;;;;;5.22;62.38;102300.56;5109022;28;21000;-57
2023/03/02 09:56:56;;;;;;;26.13;16.00;;;;;;;5.32;61.85;102297.59;5111472;28;20027;-58
2023/03/02 09:59:40;;;;;;;26.17;16.80;;;;;;;5.58;62.01;102298.56;5113063;28;20322;-59
2023/03/02 10:02:14;;;;;;;25.15;15.93;;;;;;;5.85;61.53;102293.28;5117610;28;20116;-59
2023/03/02 10:04:46;;;;;;;23.77;15.80;;;;;;;5.99;59.24;102293.69;5111164;28;20020;-59
2023/03/02 10:07:23;;;;;;;26.67;15.70;;;;;;;6.15;58.86;102295.84;5113377;27;20038;-59
2023/03/02 10:09:49;;;;;;;23.17;15.55;;;;;;;6.28;57.02;102300.63;5102503;27;20381;-59
2023/03/02 10:12:29;;;;;;;23.48;14.48;;;;;;;6.39;57.00;102300.22;5110135;28;20580;-59
2023/03/02 10:15:21;;;;;;;24.92;16.35;;;;;;;6.50;58.65;102296.38;5110842;28;20035;-59
2023/03/02 10:17:58;;;;;;;21.95;15.25;;;;;;;6.62;56.23;102296.75;5109220;28;20358;-59
2023/03/02 10:20:33;;;;;;;24.40;15.45;;;;;;;6.76;55.66;102295.38;5112938;28;20115;-58
2023/03/02 10:23:10;;;;;;;23.63;15.52;;;;;;;7.00;57.93;102293.63;5107876;27;20429;-59
2023/03/02 10:25:52;;;;;;;22.98;14.70;;;;;;;7.12;53.81;102295.78;5113070;28;20355;-58
2023/03/02 10:28:28;;;;;;;21.70;14.88;;;;;;;7.38;55.37;102291.25;5111740;28;20031;-59
2023/03/02 10:31:06;;;;;;;22.48;13.98;;;;;;;7.60;54.61;102291.25;5112790;28;20024;-59
2023/03/02 10:33:35;;;;;;;19.63;13.75;;;;;;;7.61;50.50;102292.97;5112068;28;20049;-57
2023/03/02 10:36:04;;;;;;;19.98;13.02;;;;;;;7.59;49.67;102290.41;5110164;28;20032;-56
2023/03/02 10:38:31;;;;;;;20.77;13.43;;;;;;;7.69;50.79;102274.97;5110263;27;20023;-58
2023/03/02 10:41:00;;;;;;;20.67;13.52;;;;;;;7.79;49.94;102286.03;5092636;28;20122;-55
2023/03/02 10:43:42;;;;;;;20.35;12.73;;;;;;;7.94;50.83;102274.84;5111065;28;20110;-58
2023/03/02 10:46:09;;;;;;;19.35;11.95;;;;;;;8.06;48.12;102273.44;5115575;27;20118;-55
2023/03/02 10:48:55;;;;;;;18.05;13.15;;;;;;;8.18;50.24;102273.81;5113820;28;20035;-56
2023/03/02 10:51:33;;;;;;;18.13;13.07;;;;;;;8.21;48.76;102276.34;5113369;27;20036;-59
2023/03/02 10:54:12;;;;;;;16.02;11.57;;;;;;;8.30;49.52;102265.34;5112502;27;20128;-57
2023/03/02 10:56:42;;;;;;;17.88;12.57;;;;;;;8.44;48.68;102263.00;5111793;28;20373;-58
2023/03/02 10:59:39;;;;;;;19.73;12.48;;;;;;;8.63;48.86;102283.34;5112570;28;20495;-57
2023/03/02 11:02:21;;;;;;;19.13;12.32;;;;;;;8.59;48.77;102276.47;5111154;28;20044;-58
2023/03/02 11:04:46;;;;;;;20.15;13.05;;;;;;;8.54;45.88;102271.38;5111943;28;20066;-58
2023/03/02 11:07:18;;;;;;;18.88;13.38;;;;;;;8.56;46.12;102268.66;5093965;28;20028;-57
2023/03/02 11:09:56;;;;;;;18.38;12.32;;;;;;;8.69;48.68;102256.56;5106957;27;20495;-58
2023/03/02 11:12:23;;;;;;;20.00;12.85;;;;;;;8.83;47.17;102262.09;5106244;27;20039;-58
2023/03/02 11:14:48;;;;;;;18.73;12.32;;;;;;;8.87;46.31;102260.16;5102770;28;20024;-58
2023/03/02 11:17:36;;;;;;;22.67;13.13;;;;;;;9.00;48.65;102255.16;5119405;27;20031;-58